sensor_id;sensor_type;location;lat;lon;timestamp;pressure;altitude;pressure_sealevel;temperature;humidity
55456;BME280;63021;52.836;6.376;2023-04-10T00:02:07;102264.75;;;8.15;58.99
55456;BME280;63021;52.836;6.376;2023-04-10T00:04:33;102251.97;;;8.08;59.48
55456;BME280;63021;52.836;6.376;2023-04-10T00:06:58;102238.25;;;8.01;58.88
55456;BME280;63021;52.836;6.376;2023-04-10T00:09:24;102263.91;;;8.15;59.32
55456;BME280;63021;52.836;6.376;2023-04-10T00:11:49;102272.50;;;8.19;59.57
55456;BME280;63021;52.836;6.376;2023-04-10T00:14:15;102260.38;;;8.14;59.13
55456;BME280;63021;52.836;6.376;2023-04-10T00:16:47;102261.06;;;8.18;59.46
55456;BME280;63021;52.836;6.376;2023-04-10T00:19:12;102246.88;;;8.05;59.34
55456;BME280;63021;52.836;6.376;2023-04-10T00:21:38;102266.56;;;8.15;59.39
55456;BME280;63021;52.836;6.376;2023-04-10T00:24:03;102264.94;;;8.12;59.15
55456;BME280;63021;52.836;6.376;2023-04-10T00:26:29;102247.31;;;7.97;59.47
55456;BME280;63021;52.836;6.376;2023-04-10T00:28:55;102263.53;;;8.07;59.48
55456;BME280;63021;52.836;6.376;2023-04-10T00:31:20;102253.09;;;8.04;59.51
55456;BME280;63021;52.836;6.376;2023-04-10T00:33:45;102255.03;;;8.02;60.06
55456;BME280;63021;52.836;6.376;2023-04-10T00:36:14;102244.78;;;7.95;59.39
55456;BME280;63021;52.836;6.376;2023-04-10T00:38:40;102244.13;;;7.92;59.76
55456;BME280;63021;52.836;6.376;2023-04-10T00:41:05;102235.41;;;7.90;60.17
55456;BME280;63021;52.836;6.376;2023-04-10T00:43:31;102239.75;;;7.91;59.77
55456;BME280;63021;52.836;6.376;2023-04-10T00:45:56;102227.72;;;7.85;60.70
55456;BME280;63021;52.836;6.376;2023-04-10T00:48:22;102224.97;;;7.87;60.14
55456;BME280;63021;52.836;6.376;2023-04-10T00:50:48;102221.59;;;7.85;59.46
55456;BME280;63021;52.836;6.376;2023-04-10T00:53:13;102200.09;;;7.75;60.42
55456;BME280;63021;52.836;6.376;2023-04-10T00:55:39;102203.28;;;7.80;59.96
55456;BME280;63021;52.836;6.376;2023-04-10T00:58:04;102192.03;;;7.76;60.00
55456;BME280;63021;52.836;6.376;2023-04-10T01:00:31;102200.19;;;7.73;59.88
55456;BME280;63021;52.836;6.376;2023-04-10T01:02:56;102176.25;;;7.60;60.42
55456;BME280;63021;52.836;6.376;2023-04-10T01:05:27;102195.09;;;7.70;59.81
55456;BME280;63021;52.836;6.376;2023-04-10T01:10:37;102185.63;;;7.66;60.43
55456;BME280;63021;52.836;6.376;2023-04-10T01:13:17;102182.19;;;7.64;60.37
55456;BME280;63021;52.836;6.376;2023-04-10T01:18:43;102180.50;;;7.63;60.12
55456;BME280;63021;52.836;6.376;2023-04-10T01:21:11;102174.53;;;7.59;60.25
55456;BME280;63021;52.836;6.376;2023-04-10T01:26:38;102166.88;;;7.55;60.23
55456;BME280;63021;52.836;6.376;2023-04-10T01:29:07;102165.16;;;7.54;61.02
55456;BME280;63021;52.836;6.376;2023-04-10T01:31:38;102175.75;;;7.54;60.59
55456;BME280;63021;52.836;6.376;2023-04-10T01:34:13;102151.63;;;7.44;60.83
55456;BME280;63021;52.836;6.376;2023-04-10T01:36:50;102147.94;;;7.46;60.14
55456;BME280;63021;52.836;6.376;2023-04-10T01:39:20;102153.34;;;7.45;60.29
55456;BME280;63021;52.836;6.376;2023-04-10T01:41:47;102151.53;;;7.45;61.06
55456;BME280;63021;52.836;6.376;2023-04-10T01:44:16;102158.63;;;7.45;60.74
55456;BME280;63021;52.836;6.376;2023-04-10T01:46:43;102163.19;;;7.43;60.00
55456;BME280;63021;52.836;6.376;2023-04-10T01:49:09;102150.03;;;7.41;60.67
55456;BME280;63021;52.836;6.376;2023-04-10T01:51:36;102134.69;;;7.32;60.47
55456;BME280;63021;52.836;6.376;2023-04-10T01:54:02;102159.84;;;7.39;60.21
55456;BME280;63021;52.836;6.376;2023-04-10T01:56:28;102153.13;;;7.34;61.16
55456;BME280;63021;52.836;6.376;2023-04-10T01:58:55;102143.66;;;7.29;61.44
55456;BME280;63021;52.836;6.376;2023-04-10T02:01:20;102154.00;;;7.34;61.28
55456;BME280;63021;52.836;6.376;2023-04-10T02:03:46;102152.28;;;7.33;60.76
55456;BME280;63021;52.836;6.376;2023-04-10T02:06:35;102151.50;;;7.31;61.44
55456;BME280;63021;52.836;6.376;2023-04-10T02:09:27;102140.38;;;7.26;60.93
55456;BME280;63021;52.836;6.376;2023-04-10T02:14:21;102116.53;;;7.11;60.86
55456;BME280;63021;52.836;6.376;2023-04-10T02:16:49;102134.69;;;7.18;61.56
55456;BME280;63021;52.836;6.376;2023-04-10T02:19:17;102113.88;;;7.11;61.08
55456;BME280;63021;52.836;6.376;2023-04-10T02:21:43;102115.75;;;7.09;60.69
55456;BME280;63021;52.836;6.376;2023-04-10T02:24:09;102132.97;;;7.17;61.47
55456;BME280;63021;52.836;6.376;2023-04-10T02:29:10;102134.78;;;7.16;61.39
55456;BME280;63021;52.836;6.376;2023-04-10T02:31:36;102121.53;;;7.16;61.15
55456;BME280;63021;52.836;6.376;2023-04-10T02:34:02;102114.53;;;7.15;61.82
55456;BME280;63021;52.836;6.376;2023-04-10T02:36:27;102110.28;;;7.13;61.50
55456;BME280;63021;52.836;6.376;2023-04-10T02:38:52;102093.50;;;6.98;61.70
55456;BME280;63021;52.836;6.376;2023-04-10T02:41:18;102114.81;;;7.10;61.38
55456;BME280;63021;52.836;6.376;2023-04-10T02:43:43;102087.72;;;6.91;61.25
55456;BME280;63021;52.836;6.376;2023-04-10T02:46:09;102106.56;;;7.01;61.35
55456;BME280;63021;52.836;6.376;2023-04-10T02:48:34;102116.81;;;7.07;61.21
55456;BME280;63021;52.836;6.376;2023-04-10T02:51:01;102114.25;;;7.05;61.75
55456;BME280;63021;52.836;6.376;2023-04-10T02:53:27;102117.75;;;7.06;62.12
55456;BME280;63021;52.836;6.376;2023-04-10T02:55:52;102121.31;;;7.05;61.97
55456;BME280;63021;52.836;6.376;2023-04-10T02:58:19;102113.38;;;7.05;62.35
55456;BME280;63021;52.836;6.376;2023-04-10T03:00:50;102123.03;;;7.06;62.30
55456;BME280;63021;52.836;6.376;2023-04-10T03:03:17;102109.22;;;7.01;62.04
55456;BME280;63021;52.836;6.376;2023-04-10T03:05:43;102104.00;;;6.99;61.82
55456;BME280;63021;52.836;6.376;2023-04-10T03:08:12;102096.25;;;6.96;62.07
55456;BME280;63021;52.836;6.376;2023-04-10T03:10:37;102118.88;;;7.02;61.67
55456;BME280;63021;52.836;6.376;2023-04-10T03:13:03;102093.91;;;6.91;61.57
55456;BME280;63021;52.836;6.376;2023-04-10T03:15:28;102113.56;;;7.02;61.30
55456;BME280;63021;52.836;6.376;2023-04-10T03:17:54;102106.66;;;6.99;62.20
55456;BME280;63021;52.836;6.376;2023-04-10T03:20:19;102106.25;;;6.91;61.95
55456;BME280;63021;52.836;6.376;2023-04-10T03:22:44;102114.78;;;6.96;61.49
55456;BME280;63021;52.836;6.376;2023-04-10T03:25:10;102117.53;;;6.94;62.52
55456;BME280;63021;52.836;6.376;2023-04-10T03:27:35;102112.34;;;6.93;62.08
55456;BME280;63021;52.836;6.376;2023-04-10T03:30:01;102105.31;;;6.92;62.36
55456;BME280;63021;52.836;6.376;2023-04-10T03:32:29;102107.22;;;6.90;62.13
55456;BME280;63021;52.836;6.376;2023-04-10T03:34:58;102084.03;;;6.79;61.82
55456;BME280;63021;52.836;6.376;2023-04-10T03:37:24;102103.72;;;6.89;62.42
55456;BME280;63021;52.836;6.376;2023-04-10T03:39:52;102110.81;;;6.89;62.57
55456;BME280;63021;52.836;6.376;2023-04-10T03:42:17;102086.69;;;6.79;61.85
55456;BME280;63021;52.836;6.376;2023-04-10T03:44:43;102094.28;;;6.85;61.95
55456;BME280;63021;52.836;6.376;2023-04-10T03:47:08;102102.03;;;6.88;62.01
55456;BME280;63021;52.836;6.376;2023-04-10T03:49:33;102091.22;;;6.77;62.04
55456;BME280;63021;52.836;6.376;2023-04-10T03:51:59;102112.53;;;6.90;62.76
55456;BME280;63021;52.836;6.376;2023-04-10T03:54:25;102103.59;;;6.91;61.91
55456;BME280;63021;52.836;6.376;2023-04-10T03:56:50;102103.59;;;6.91;62.21
55456;BME280;63021;52.836;6.376;2023-04-10T03:59:16;102105.22;;;6.93;63.05
55456;BME280;63021;52.836;6.376;2023-04-10T04:01:41;102098.31;;;6.91;62.59
55456;BME280;63021;52.836;6.376;2023-04-10T04:04:06;102077.53;;;6.85;62.00
55456;BME280;63021;52.836;6.376;2023-04-10T04:06:32;102088.50;;;6.93;62.91
55456;BME280;63021;52.836;6.376;2023-04-10T04:08:57;102089.16;;;6.97;62.89
55456;BME280;63021;52.836;6.376;2023-04-10T04:11:23;102086.50;;;6.97;62.35
55456;BME280;63021;52.836;6.376;2023-04-10T04:13:48;102075.81;;;6.98;62.45
55456;BME280;63021;52.836;6.376;2023-04-10T04:16:13;102073.00;;;7.01;62.61
55456;BME280;63021;52.836;6.376;2023-04-10T04:18:39;102073.94;;;7.00;62.01
55456;BME280;63021;52.836;6.376;2023-04-10T04:21:04;102064.97;;;7.03;62.97
55456;BME280;63021;52.836;6.376;2023-04-10T04:23:32;102074.53;;;7.05;62.30
55456;BME280;63021;52.836;6.376;2023-04-10T04:25:58;102069.16;;;7.07;62.22
55456;BME280;63021;52.836;6.376;2023-04-10T04:28:23;102063.75;;;7.08;62.46
55456;BME280;63021;52.836;6.376;2023-04-10T04:30:49;102061.84;;;7.10;62.46
55456;BME280;63021;52.836;6.376;2023-04-10T04:33:14;102068.84;;;7.11;62.09
55456;BME280;63021;52.836;6.376;2023-04-10T04:35:40;102061.84;;;7.10;62.62
55456;BME280;63021;52.836;6.376;2023-04-10T04:38:05;102054.69;;;7.13;62.84
55456;BME280;63021;52.836;6.376;2023-04-10T04:40:30;102045.97;;;7.10;63.04
55456;BME280;63021;52.836;6.376;2023-04-10T04:42:58;102038.31;;;7.06;62.17
55456;BME280;63021;52.836;6.376;2023-04-10T04:45:24;102043.31;;;7.10;63.37
55456;BME280;63021;52.836;6.376;2023-04-10T04:47:49;102042.38;;;7.11;62.52
55456;BME280;63021;52.836;6.376;2023-04-10T04:50:15;102046.63;;;7.14;62.78
55456;BME280;63021;52.836;6.376;2023-04-10T04:52:40;102039.63;;;7.13;62.68
55456;BME280;63021;52.836;6.376;2023-04-10T04:55:06;102012.38;;;6.97;62.97
55456;BME280;63021;52.836;6.376;2023-04-10T04:57:32;102020.72;;;7.05;62.53
55456;BME280;63021;52.836;6.376;2023-04-10T05:00:06;102004.63;;;6.93;63.04
55456;BME280;63021;52.836;6.376;2023-04-10T05:02:34;102026.69;;;7.08;62.39
55456;BME280;63021;52.836;6.376;2023-04-10T05:05:02;102021.59;;;7.05;62.38
55456;BME280;63021;52.836;6.376;2023-04-10T05:07:30;102031.19;;;7.21;62.87
55456;BME280;63021;52.836;6.376;2023-04-10T05:09:58;102024.47;;;7.15;63.26
55456;BME280;63021;52.836;6.376;2023-04-10T05:12:23;102033.66;;;7.24;62.58
55456;BME280;63021;52.836;6.376;2023-04-10T05:14:52;102033.53;;;7.25;63.06
55456;BME280;63021;52.836;6.376;2023-04-10T05:17:17;102034.41;;;7.26;62.95
55456;BME280;63021;52.836;6.376;2023-04-10T05:19:42;102034.31;;;7.27;63.13
55456;BME280;63021;52.836;6.376;2023-04-10T05:22:08;102032.50;;;7.28;63.12
55456;BME280;63021;52.836;6.376;2023-04-10T05:24:33;102035.94;;;7.30;62.38
55456;BME280;63021;52.836;6.376;2023-04-10T05:26:59;102023.81;;;7.26;62.49
55456;BME280;63021;52.836;6.376;2023-04-10T05:29:24;102028.72;;;7.32;62.43
55456;BME280;63021;52.836;6.376;2023-04-10T05:31:50;102026.06;;;7.32;62.43
55456;BME280;63021;52.836;6.376;2023-04-10T05:34:16;102028.63;;;7.34;62.41
55456;BME280;63021;52.836;6.376;2023-04-10T05:36:42;102037.44;;;7.34;63.25
55456;BME280;63021;52.836;6.376;2023-04-10T05:39:07;102032.88;;;7.36;62.54
55456;BME280;63021;52.836;6.376;2023-04-10T05:41:33;102035.44;;;7.38;63.18
55456;BME280;63021;52.836;6.376;2023-04-10T05:43:58;102028.34;;;7.38;62.83
55456;BME280;63021;52.836;6.376;2023-04-10T05:46:23;102035.13;;;7.42;63.29
55456;BME280;63021;52.836;6.376;2023-04-10T05:48:49;102035.13;;;7.42;62.59
55456;BME280;63021;52.836;6.376;2023-04-10T05:51:15;102027.00;;;7.45;62.37
55456;BME280;63021;52.836;6.376;2023-04-10T05:53:40;102018.88;;;7.49;62.39
55456;BME280;63021;52.836;6.376;2023-04-10T05:56:06;102035.31;;;7.54;62.62
55456;BME280;63021;52.836;6.376;2023-04-10T05:58:31;102027.16;;;7.57;62.17
55456;BME280;63021;52.836;6.376;2023-04-10T06:00:57;102014.88;;;7.56;62.99
55456;BME280;63021;52.836;6.376;2023-04-10T06:03:22;102024.78;;;7.67;62.06
55456;BME280;63021;52.836;6.376;2023-04-10T06:05:48;102027.13;;;7.71;62.23
55456;BME280;63021;52.836;6.376;2023-04-10T06:08:13;102021.56;;;7.76;62.13
55456;BME280;63021;52.836;6.376;2023-04-10T06:10:39;102020.00;;;7.86;61.96
55456;BME280;63021;52.836;6.376;2023-04-10T06:13:05;102006.28;;;7.79;61.78
55456;BME280;63021;52.836;6.376;2023-04-10T06:15:30;102016.63;;;7.97;61.83
55456;BME280;63021;52.836;6.376;2023-04-10T06:17:56;102009.84;;;8.06;62.05
55456;BME280;63021;52.836;6.376;2023-04-10T06:20:21;101991.28;;;8.06;62.78
55456;BME280;63021;52.836;6.376;2023-04-10T06:22:47;102004.09;;;8.26;61.71
55456;BME280;63021;52.836;6.376;2023-04-10T06:25:12;102002.19;;;8.41;61.23
55456;BME280;63021;52.836;6.376;2023-04-10T06:27:38;101997.97;;;8.52;61.98
55456;BME280;63021;52.836;6.376;2023-04-10T06:30:04;101992.91;;;8.61;61.23
55456;BME280;63021;52.836;6.376;2023-04-10T06:32:30;101992.34;;;8.69;61.13
55456;BME280;63021;52.836;6.376;2023-04-10T06:34:56;101988.84;;;8.81;61.21
55456;BME280;63021;52.836;6.376;2023-04-10T06:37:31;101981.94;;;8.92;60.70
55456;BME280;63021;52.836;6.376;2023-04-10T06:40:08;101988.63;;;8.97;60.25
55456;BME280;63021;52.836;6.376;2023-04-10T06:42:34;101980.84;;;9.07;60.73
55456;BME280;63021;52.836;6.376;2023-04-10T06:45:00;101973.31;;;9.14;60.61
55456;BME280;63021;52.836;6.376;2023-04-10T06:47:25;101976.88;;;9.26;60.50
55456;BME280;63021;52.836;6.376;2023-04-10T06:49:51;101958.78;;;9.31;60.42
55456;BME280;63021;52.836;6.376;2023-04-10T06:52:17;101961.81;;;9.50;59.90
55456;BME280;63021;52.836;6.376;2023-04-10T06:54:42;101960.06;;;9.62;59.82
55456;BME280;63021;52.836;6.376;2023-04-10T06:57:08;101951.97;;;9.64;59.27
55456;BME280;63021;52.836;6.376;2023-04-10T06:59:33;101951.19;;;9.75;59.16
55456;BME280;63021;52.836;6.376;2023-04-10T07:02:00;101946.25;;;9.81;59.43
55456;BME280;63021;52.836;6.376;2023-04-10T07:04:25;101955.97;;;9.94;59.20
55456;BME280;63021;52.836;6.376;2023-04-10T07:06:51;101941.22;;;10.01;58.74
55456;BME280;63021;52.836;6.376;2023-04-10T07:09:16;101952.66;;;10.14;58.50
55456;BME280;63021;52.836;6.376;2023-04-10T07:11:42;101931.50;;;10.24;58.36
55456;BME280;63021;52.836;6.376;2023-04-10T07:14:07;101929.94;;;10.33;58.00
55456;BME280;63021;52.836;6.376;2023-04-10T07:16:32;101930.34;;;10.51;58.21
55456;BME280;63021;52.836;6.376;2023-04-10T07:18:58;101923.97;;;10.65;57.56
55456;BME280;63021;52.836;6.376;2023-04-10T07:21:23;101916.69;;;10.78;57.47
55456;BME280;63021;52.836;6.376;2023-04-10T07:23:49;101910.53;;;10.89;57.19
55456;BME280;63021;52.836;6.376;2023-04-10T07:26:14;101910.34;;;11.02;56.71
55456;BME280;63021;52.836;6.376;2023-04-10T07:28:40;101903.31;;;11.12;56.47
55456;BME280;63021;52.836;6.376;2023-04-10T07:31:06;101903.31;;;11.23;56.47
55456;BME280;63021;52.836;6.376;2023-04-10T07:33:32;101894.91;;;11.39;56.31
55456;BME280;63021;52.836;6.376;2023-04-10T07:35:57;101884.19;;;11.51;55.01
55456;BME280;63021;52.836;6.376;2023-04-10T07:38:23;101875.50;;;11.70;55.38
55456;BME280;63021;52.836;6.376;2023-04-10T07:40:55;101864.94;;;11.89;54.99
55456;BME280;63021;52.836;6.376;2023-04-10T07:43:21;101854.22;;;12.01;54.55
55456;BME280;63021;52.836;6.376;2023-04-10T07:45:46;101863.38;;;12.29;54.21
55456;BME280;63021;52.836;6.376;2023-04-10T07:48:14;101865.13;;;12.50;53.75
55456;BME280;63021;52.836;6.376;2023-04-10T07:50:40;101853.84;;;12.67;52.96
55456;BME280;63021;52.836;6.376;2023-04-10T07:53:05;101848.22;;;12.80;52.14
55456;BME280;63021;52.836;6.376;2023-04-10T07:55:44;101844.03;;;12.97;51.61
55456;BME280;63021;52.836;6.376;2023-04-10T07:58:09;101838.56;;;13.08;51.54
55456;BME280;63021;52.836;6.376;2023-04-10T08:00:35;101841.94;;;13.20;51.53
55456;BME280;63021;52.836;6.376;2023-04-10T08:03:01;101838.31;;;13.31;51.59
55456;BME280;63021;52.836;6.376;2023-04-10T08:05:26;101833.53;;;13.44;50.91
55456;BME280;63021;52.836;6.376;2023-04-10T08:07:52;101831.00;;;13.52;51.25
55456;BME280;63021;52.836;6.376;2023-04-10T08:10:17;101823.81;;;13.63;50.30
55456;BME280;63021;52.836;6.376;2023-04-10T08:12:43;101821.56;;;13.68;49.87
55456;BME280;63021;52.836;6.376;2023-04-10T08:15:09;101818.88;;;13.78;49.47
55456;BME280;63021;52.836;6.376;2023-04-10T08:17:34;101813.22;;;13.81;49.83
55456;BME280;63021;52.836;6.376;2023-04-10T08:20:00;101802.94;;;13.76;49.24
55456;BME280;63021;52.836;6.376;2023-04-10T08:22:25;101811.53;;;13.80;49.05
55456;BME280;63021;52.836;6.376;2023-04-10T08:24:50;101800.69;;;13.81;49.27
55456;BME280;63021;52.836;6.376;2023-04-10T08:27:16;101768.75;;;13.60;48.83
55456;BME280;63021;52.836;6.376;2023-04-10T08:29:42;101773.97;;;13.62;48.92
55456;BME280;63021;52.836;6.376;2023-04-10T08:32:08;101775.22;;;13.67;48.46
55456;BME280;63021;52.836;6.376;2023-04-10T08:34:33;101763.13;;;13.63;48.81
55456;BME280;63021;52.836;6.376;2023-04-10T08:36:59;101790.81;;;13.82;48.68
55456;BME280;63021;52.836;6.376;2023-04-10T08:39:24;101795.16;;;13.93;48.43
55456;BME280;63021;52.836;6.376;2023-04-10T08:41:50;101789.50;;;13.96;48.83
55456;BME280;63021;52.836;6.376;2023-04-10T08:44:16;101760.81;;;13.88;49.28
55456;BME280;63021;52.836;6.376;2023-04-10T08:46:43;101779.59;;;14.06;48.88
55456;BME280;63021;52.836;6.376;2023-04-10T08:49:14;101783.78;;;14.18;49.57
55456;BME280;63021;52.836;6.376;2023-04-10T08:52:01;101782.06;;;14.27;48.29
55456;BME280;63021;52.836;6.376;2023-04-10T08:54:29;101776.41;;;14.30;47.80
55456;BME280;63021;52.836;6.376;2023-04-10T08:56:57;101776.25;;;14.32;47.63
55456;BME280;63021;52.836;6.376;2023-04-10T08:59:23;101774.97;;;14.36;47.64
55456;BME280;63021;52.836;6.376;2023-04-10T09:01:48;101763.72;;;14.32;48.04
55456;BME280;63021;52.836;6.376;2023-04-10T09:04:14;101760.13;;;14.42;47.60
55456;BME280;63021;52.836;6.376;2023-04-10T09:06:41;101761.63;;;14.54;48.25
55456;BME280;63021;52.836;6.376;2023-04-10T09:09:07;101758.78;;;14.65;47.77
55456;BME280;63021;52.836;6.376;2023-04-10T09:14:27;101738.78;;;14.78;46.80
55456;BME280;63021;52.836;6.376;2023-04-10T09:17:11;101738.16;;;14.84;45.88
55456;BME280;63021;52.836;6.376;2023-04-10T09:19:37;101742.91;;;14.90;46.27
55456;BME280;63021;52.836;6.376;2023-04-10T09:22:02;101733.69;;;14.93;46.32
55456;BME280;63021;52.836;6.376;2023-04-10T09:24:28;101731.72;;;14.95;45.32
55456;BME280;63021;52.836;6.376;2023-04-10T09:26:54;101740.69;;;15.03;44.66
55456;BME280;63021;52.836;6.376;2023-04-10T09:29:19;101712.56;;;14.89;44.30
55456;BME280;63021;52.836;6.376;2023-04-10T09:31:47;101718.63;;;14.92;44.81
55456;BME280;63021;52.836;6.376;2023-04-10T09:34:19;101726.06;;;14.98;44.21
55456;BME280;63021;52.836;6.376;2023-04-10T09:36:54;101730.59;;;14.97;43.99
55456;BME280;63021;52.836;6.376;2023-04-10T09:39:20;101736.25;;;14.94;45.06
55456;BME280;63021;52.836;6.376;2023-04-10T09:41:53;101724.97;;;14.90;44.60
55456;BME280;63021;52.836;6.376;2023-04-10T09:44:32;101724.97;;;14.90;44.52
55456;BME280;63021;52.836;6.376;2023-04-10T09:47:16;101692.91;;;14.81;44.15
55456;BME280;63021;52.836;6.376;2023-04-10T09:52:25;101672.47;;;14.80;44.94
55456;BME280;63021;52.836;6.376;2023-04-10T09:54:59;101671.75;;;14.96;45.37
55456;BME280;63021;52.836;6.376;2023-04-10T09:57:27;101685.19;;;15.04;45.13
55456;BME280;63021;52.836;6.376;2023-04-10T09:59:55;101683.41;;;15.13;44.63
55456;BME280;63021;52.836;6.376;2023-04-10T10:02:23;101669.72;;;15.16;44.76
55456;BME280;63021;52.836;6.376;2023-04-10T10:04:50;101670.47;;;15.26;44.79
55456;BME280;63021;52.836;6.376;2023-04-10T10:07:20;101667.13;;;15.32;44.19
55456;BME280;63021;52.836;6.376;2023-04-10T10:09:52;101626.56;;;15.27;43.94
55456;BME280;63021;52.836;6.376;2023-04-10T10:13:14;101646.25;;;15.44;42.48
55456;BME280;63021;52.836;6.376;2023-04-10T10:18:53;101627.94;;;15.39;43.11
55456;BME280;63021;52.836;6.376;2023-04-10T10:21:23;101639.06;;;15.53;42.85
55456;BME280;63021;52.836;6.376;2023-04-10T10:23:49;101604.63;;;15.40;43.23
55456;BME280;63021;52.836;6.376;2023-04-10T10:26:18;101614.03;;;15.44;43.32
55456;BME280;63021;52.836;6.376;2023-04-10T10:28:46;101592.41;;;15.37;43.19
55456;BME280;63021;52.836;6.376;2023-04-10T10:31:15;101613.25;;;15.52;42.94
55456;BME280;63021;52.836;6.376;2023-04-10T10:33:46;101593.59;;;15.43;42.89
55456;BME280;63021;52.836;6.376;2023-04-10T10:36:14;101591.75;;;15.44;42.50
55456;BME280;63021;52.836;6.376;2023-04-10T10:38:49;101588.06;;;15.45;42.99
55456;BME280;63021;52.836;6.376;2023-04-10T10:41:36;101575.94;;;15.32;42.77
55456;BME280;63021;52.836;6.376;2023-04-10T10:44:25;101590.44;;;15.48;43.02
55456;BME280;63021;52.836;6.376;2023-04-10T10:47:32;101582.69;;;15.45;43.32
55456;BME280;63021;52.836;6.376;2023-04-10T10:50:05;101576.63;;;15.42;43.00
55456;BME280;63021;52.836;6.376;2023-04-10T10:52:48;101563.56;;;15.39;43.09
55456;BME280;63021;52.836;6.376;2023-04-10T10:55:29;101553.66;;;15.40;43.24
55456;BME280;63021;52.836;6.376;2023-04-10T10:58:03;101560.22;;;15.46;43.67
55456;BME280;63021;52.836;6.376;2023-04-10T11:05:51;101547.81;;;15.53;43.48
55456;BME280;63021;52.836;6.376;2023-04-10T11:08:33;101555.91;;;15.61;43.99
55456;BME280;63021;52.836;6.376;2023-04-10T11:11:19;101546.53;;;15.65;43.76
55456;BME280;63021;52.836;6.376;2023-04-10T11:16:19;101535.47;;;15.68;43.21
55456;BME280;63021;52.836;6.376;2023-04-10T11:21:21;101508.47;;;15.70;43.25
55456;BME280;63021;52.836;6.376;2023-04-10T11:29:04;101507.66;;;15.77;43.63
55456;BME280;63021;52.836;6.376;2023-04-10T11:31:39;101492.72;;;15.75;43.33
55456;BME280;63021;52.836;6.376;2023-04-10T11:34:08;101463.50;;;15.64;43.35
55456;BME280;63021;52.836;6.376;2023-04-10T11:36:40;101468.03;;;15.71;43.05
55456;BME280;63021;52.836;6.376;2023-04-10T11:39:07;101451.94;;;15.71;42.96
55456;BME280;63021;52.836;6.376;2023-04-10T11:41:39;101431.81;;;15.59;43.40
55456;BME280;63021;52.836;6.376;2023-04-10T11:44:07;101429.47;;;15.72;43.30
55456;BME280;63021;52.836;6.376;2023-04-10T11:46:44;101451.81;;;15.89;42.71
55456;BME280;63021;52.836;6.376;2023-04-10T11:49:25;101425.81;;;15.82;43.20
55456;BME280;63021;52.836;6.376;2023-04-10T11:52:11;101429.50;;;15.89;43.06
55456;BME280;63021;52.836;6.376;2023-04-10T11:54:37;101421.78;;;15.94;43.41
55456;BME280;63021;52.836;6.376;2023-04-10T11:57:12;101415.41;;;16.03;43.48
55456;BME280;63021;52.836;6.376;2023-04-10T11:59:38;101429.16;;;16.25;43.04
55456;BME280;63021;52.836;6.376;2023-04-10T12:02:09;101413.34;;;16.30;42.82
55456;BME280;63021;52.836;6.376;2023-04-10T12:04:39;101403.28;;;16.24;42.49
55456;BME280;63021;52.836;6.376;2023-04-10T12:07:11;101416.50;;;16.50;42.48
55456;BME280;63021;52.836;6.376;2023-04-10T12:09:39;101411.63;;;16.54;42.13
55456;BME280;63021;52.836;6.376;2023-04-10T12:12:13;101394.81;;;16.52;42.58
55456;BME280;63021;52.836;6.376;2023-04-10T12:14:42;101378.66;;;16.60;42.42
55456;BME280;63021;52.836;6.376;2023-04-10T12:17:13;101403.59;;;16.93;42.50
55456;BME280;63021;52.836;6.376;2023-04-10T12:19:46;101364.28;;;16.84;42.32
55456;BME280;63021;52.836;6.376;2023-04-10T12:22:14;101353.34;;;16.94;41.83
55456;BME280;63021;52.836;6.376;2023-04-10T12:27:25;101366.47;;;16.89;41.08
55456;BME280;63021;52.836;6.376;2023-04-10T12:29:53;101396.38;;;16.94;40.90
55456;BME280;63021;52.836;6.376;2023-04-10T12:32:20;101376.41;;;16.80;41.18
55456;BME280;63021;52.836;6.376;2023-04-10T12:34:50;101355.47;;;16.67;41.63
55456;BME280;63021;52.836;6.376;2023-04-10T12:37:16;101358.69;;;16.62;41.38
55456;BME280;63021;52.836;6.376;2023-04-10T12:39:45;101357.00;;;16.53;41.94
55456;BME280;63021;52.836;6.376;2023-04-10T12:42:14;101362.69;;;16.67;42.14
55456;BME280;63021;52.836;6.376;2023-04-10T12:44:58;101338.72;;;16.49;41.87
55456;BME280;63021;52.836;6.376;2023-04-10T12:47:25;101355.47;;;16.59;42.36
55456;BME280;63021;52.836;6.376;2023-04-10T12:50:24;101368.63;;;16.54;41.69
55456;BME280;63021;52.836;6.376;2023-04-10T12:53:10;101344.66;;;16.36;42.41
55456;BME280;63021;52.836;6.376;2023-04-10T12:55:38;101328.38;;;16.29;42.10
55456;BME280;63021;52.836;6.376;2023-04-10T12:58:19;101325.03;;;16.27;42.68
55456;BME280;63021;52.836;6.376;2023-04-10T13:00:46;101319.00;;;16.25;42.68
55456;BME280;63021;52.836;6.376;2023-04-10T13:03:12;101346.13;;;16.47;42.47
55456;BME280;63021;52.836;6.376;2023-04-10T13:05:40;101321.97;;;16.38;42.88
55456;BME280;63021;52.836;6.376;2023-04-10T13:08:06;101316.59;;;16.38;42.72
55456;BME280;63021;52.836;6.376;2023-04-10T13:10:31;101308.00;;;16.43;42.97
55456;BME280;63021;52.836;6.376;2023-04-10T13:13:05;101308.63;;;16.53;42.92
55456;BME280;63021;52.836;6.376;2023-04-10T13:15:39;101291.25;;;16.41;43.25
55456;BME280;63021;52.836;6.376;2023-04-10T13:18:05;101284.34;;;16.47;43.11
55456;BME280;63021;52.836;6.376;2023-04-10T13:20:38;101286.31;;;16.53;42.76
55456;BME280;63021;52.836;6.376;2023-04-10T13:23:05;101286.66;;;16.50;42.60
55456;BME280;63021;52.836;6.376;2023-04-10T13:25:32;101241.56;;;16.28;42.73
55456;BME280;63021;52.836;6.376;2023-04-10T13:27:59;101261.19;;;16.37;43.22
55456;BME280;63021;52.836;6.376;2023-04-10T13:30:26;101231.72;;;16.21;43.57
55456;BME280;63021;52.836;6.376;2023-04-10T13:32:52;101212.75;;;16.14;43.21
55456;BME280;63021;52.836;6.376;2023-04-10T13:35:18;101235.03;;;16.31;43.12
55456;BME280;63021;52.836;6.376;2023-04-10T13:37:44;101240.06;;;16.26;43.13
55456;BME280;63021;52.836;6.376;2023-04-10T13:40:10;101221.16;;;16.19;43.30
55456;BME280;63021;52.836;6.376;2023-04-10T13:42:36;101205.09;;;16.03;43.56